Time;durP1;ratioP1;P1;durP2;ratioP2;P2;SDS_P1;SDS_P2;PMS_P1;PMS_P2;Temp;Humidity;BMP_temperature;BMP_pressure;BME280_temperature;BME280_humidity;BME280_pressure;Samples;Min_cycle;Max_cycle;Signal;HPM_P1;HPM_P2
2022/07/26 00:03:18;;;;;;;1.42;0.40;;;;;;;;;;21151198;28;20291;-77
2022/07/26 00:13:20;;;;;;;1.58;0.40;;;27.00;91.00;;;;;;21150340;28;20223;-77
2022/07/26 00:23:22;;;;;;;2.80;0.50;;;;;;;;;;21155749;28;20330;-77
2022/07/26 00:33:24;;;;;;;0.65;0.38;;;;;;;;;;21152693;28;20203;-78
2022/07/26 00:43:26;;;;;;;1.17;0.50;;;;;;;;;;21152827;28;20196;-77
2022/07/26 00:53:27;;;;;;;0.57;0.35;;;;;;;;;;21133638;28;20276;-76
2022/07/26 01:03:29;;;;;;;1.13;0.52;;;;;;;;;;21118238;28;20660;-77
2022/07/26 01:13:31;;;;;;;3.20;0.50;;;;;;;;;;21126756;28;20693;-76
2022/07/26 01:23:33;;;;;;;1.23;0.35;;;26.60;93.70;;;;;;21134134;28;20208;-77
2022/07/26 01:33:58;;;;;;;0.45;0.30;;;;;;;;;;21166194;28;20222;-77
2022/07/26 01:44:00;;;;;;;0.50;0.35;;;;;;;;;;21162636;28;20252;-77
2022/07/26 01:54:01;;;;;;;0.43;0.30;;;;;;;;;;21163443;28;20228;-77
2022/07/26 02:04:03;;;;;;;1.73;0.50;;;;;;;;;;21163157;28;20218;-77
2022/07/26 02:14:05;;;;;;;0.60;0.45;;;;;;;;;;21154737;28;20218;-77
2022/07/26 02:24:07;;;;;;;0.68;0.32;;;;;;;;;;21149399;28;20225;-77
2022/07/26 02:34:08;;;;;;;3.53;0.63;;;;;;;;;;21139068;28;20272;-76
2022/07/26 02:44:10;;;;;;;1.13;0.50;;;;;;;;;;21161041;28;20205;-76
2022/07/26 02:54:12;;;;;;;1.85;0.40;;;25.60;96.40;;;;;;21153398;28;20248;-76
2022/07/26 03:04:14;;;;;;;0.90;0.47;;;;;;;;;;21160031;28;20193;-77
2022/07/26 03:14:16;;;;;;;3.10;0.77;;;;;;;;;;21158940;28;20219;-77
2022/07/26 03:24:17;;;;;;;1.48;0.57;;;;;;;;;;21140089;28;20485;-77
2022/07/26 03:34:20;;;;;;;0.70;0.50;;;;;;;;;;21149739;28;20594;-75
2022/07/26 03:44:22;;;;;;;2.13;0.60;;;;;;;;;;21102758;28;20215;-73
2022/07/26 03:54:23;;;;;;;2.42;0.50;;;;;;;;;;21153664;28;20213;-73
2022/07/26 04:04:25;;;;;;;3.58;0.70;;;;;;;;;;21136722;28;20742;-72
2022/07/26 04:14:27;;;;;;;1.38;0.52;;;;;;;;;;21139678;28;20221;-73
2022/07/26 04:24:29;;;;;;;4.63;0.55;;;;;;;;;;21143523;28;20263;-73
2022/07/26 04:34:31;;;;;;;1.77;0.50;;;;;;;;;;21119148;28;20248;-73
2022/07/26 04:44:35;;;;;;;0.77;0.35;;;;;;;;;;21137635;28;20255;-72
2022/07/26 04:54:37;;;;;;;1.35;0.50;;;;;;;;;;21150678;28;20689;-72
2022/07/26 05:04:39;;;;;;;1.50;0.60;;;;;;;;;;21167961;28;20216;-71
2022/07/26 05:14:41;;;;;;;1.25;0.50;;;;;;;;;;21168553;28;20223;-71
2022/07/26 05:24:45;;;;;;;2.22;0.60;;;;;;;;;;21162060;28;20236;-72
2022/07/26 05:34:47;;;;;;;1.77;0.50;;;;;;;;;;21161018;28;20276;-71
2022/07/26 05:44:48;;;;;;;1.45;0.50;;;;;;;;;;21163975;22;20287;-74
2022/07/26 05:54:59;;;;;;;1.15;0.52;;;24.30;99.90;;;;;;21050098;28;20226;-74
2022/07/26 06:05:08;;;;;;;0.55;0.40;;;;;;;;;;21095443;27;20261;-73
2022/07/26 06:15:10;;;;;;;0.50;0.30;;;;;;;;;;21061799;28;20288;-72
2022/07/26 06:25:12;;;;;;;0.77;0.30;;;;;;;;;;21064391;28;20214;-73
2022/07/26 06:35:14;;;;;;;0.65;0.30;;;24.50;93.90;;;;;;21121136;28;20641;-74
2022/07/26 06:45:16;;;;;;;0.30;0.30;;;;;;;;;;21081443;28;20242;-72
2022/07/26 06:55:18;;;;;;;1.20;0.30;;;;;;;;;;21107823;28;20221;-75
2022/07/26 07:05:20;;;;;;;0.68;0.30;;;;;;;;;;21110651;28;20205;-73
2022/07/26 07:15:22;;;;;;;1.90;0.50;;;;;;;;;;21092125;28;20282;-73
2022/07/26 07:25:24;;;;;;;0.60;0.20;;;;;;;;;;21098534;28;20271;-73
2022/07/26 07:35:26;;;;;;;0.47;0.30;;;;;;;;;;21091025;28;20227;-73
2022/07/26 07:45:28;;;;;;;0.40;0.20;;;;;;;;;;21119298;28;20581;-73
2022/07/26 07:55:30;;;;;;;0.55;0.30;;;;;;;;;;21104890;28;20295;-74
2022/07/26 08:05:31;;;;;;;0.60;0.20;;;;;;;;;;21104239;28;20620;-73
2022/07/26 08:15:33;;;;;;;0.28;0.20;;;;;;;;;;21092855;28;20274;-73
2022/07/26 08:25:35;;;;;;;0.28;0.25;;;;;;;;;;21109004;28;20214;-73
2022/07/26 08:35:37;;;;;;;0.40;0.20;;;;;;;;;;21115436;28;20762;-73
2022/07/26 08:45:39;;;;;;;1.83;0.40;;;;;;;;;;21147401;28;20225;-72
2022/07/26 08:55:41;;;;;;;0.80;0.60;;;;;;;;;;21146824;28;20222;-72
2022/07/26 09:05:43;;;;;;;1.60;0.35;;;;;;;;;;21146493;28;20200;-73
2022/07/26 09:15:45;;;;;;;1.27;0.32;;;;;;;;;;21130305;28;20226;-73
2022/07/26 09:25:47;;;;;;;1.17;0.40;;;;;;;;;;21128925;28;20203;-75
2022/07/26 09:36:03;;;;;;;2.58;0.30;;;;;;;;;;21135825;28;20238;-73
2022/07/26 09:46:05;;;;;;;0.22;0.20;;;25.40;84.60;;;;;;21115908;28;20284;-73
2022/07/26 09:56:08;;;;;;;0.60;0.30;;;;;;;;;;21114054;28;20281;-74
2022/07/26 10:06:09;;;;;;;0.47;0.30;;;;;;;;;;21114434;28;20207;-73
2022/07/26 10:16:31;;;;;;;0.60;0.30;;;26.70;85.50;;;;;;21110953;28;20291;-73
2022/07/26 10:26:33;;;;;;;0.43;0.20;;;;;;;;;;21113139;28;20628;-73
2022/07/26 10:36:37;;;;;;;0.77;0.25;;;26.30;83.30;;;;;;21110656;28;20295;-73
2022/07/26 10:46:55;;;;;;;0.32;0.20;;;26.60;77.30;;;;;;21103232;28;20270;-73
2022/07/26 10:56:57;;;;;;;0.20;0.20;;;;;;;;;;21085025;28;20221;-73
2022/07/26 11:07:00;;;;;;;0.45;0.30;;;;;;;;;;21093259;28;20563;-72
2022/07/26 11:17:03;;;;;;;0.77;0.30;;;;;;;;;;21140992;28;20948;-73
2022/07/26 11:27:04;;;;;;;0.65;0.30;;;;;;;;;;21123490;28;20207;-74
2022/07/26 11:37:06;;;;;;;0.75;0.32;;;;;;;;;;21106734;28;20225;-74
2022/07/26 11:47:12;;;;;;;1.75;0.60;;;;;;;;;;21114382;22;20224;-77
2022/07/26 11:57:15;;;;;;;0.35;0.30;;;;;;;;;;21075503;28;20589;-77
2022/07/26 12:07:17;;;;;;;0.22;0.20;;;;;;;;;;21076005;28;20212;-77
2022/07/26 12:17:20;;;;;;;0.75;0.38;;;;;;;;;;21136469;28;20231;-77
2022/07/26 12:27:26;;;;;;;1.15;0.30;;;;;;;;;;21143974;28;20206;-77
2022/07/26 12:37:33;;;;;;;0.52;0.32;;;;;;;;;;21140744;28;20222;-77
2022/07/26 12:47:36;;;;;;;1.65;0.38;;;26.90;85.10;;;;;;21136768;28;20222;-78
2022/07/26 12:57:37;;;;;;;0.52;0.40;;;;;;;;;;21134757;28;20238;-77
2022/07/26 13:07:39;;;;;;;1.73;0.77;;;27.20;79.00;;;;;;21142230;28;20567;-77
2022/07/26 13:17:41;;;;;;;0.30;0.30;;;;;;;;;;21182375;28;20478;-77
2022/07/26 13:27:43;;;;;;;0.65;0.30;;;;;;;;;;21142460;28;20635;-77
2022/07/26 13:37:45;;;;;;;0.43;0.20;;;;;;;;;;21122221;27;20259;-76
2022/07/26 13:47:46;;;;;;;1.55;0.40;;;;;;;;;;21134580;28;20230;-75
2022/07/26 13:57:48;;;;;;;1.85;0.43;;;;;;;;;;21154771;28;20639;-75
2022/07/26 14:07:50;;;;;;;2.42;0.40;;;;;;;;;;21153437;28;20226;-76
2022/07/26 14:17:52;;;;;;;0.22;0.20;;;;;;;;;;21119094;28;20219;-76
2022/07/26 14:27:54;;;;;;;0.38;0.28;;;28.60;74.10;;;;;;21153187;28;20223;-76
2022/07/26 14:37:55;;;;;;;0.28;0.28;;;;;;;;;;21120305;28;20632;-77
2022/07/26 14:47:57;;;;;;;0.50;0.30;;;;;;;;;;21164080;27;20230;-76
2022/07/26 14:57:59;;;;;;;0.88;0.40;;;;;;;;;;21163311;28;20619;-77
2022/07/26 15:08:00;;;;;;;0.65;0.30;;;;;;;;;;21160105;28;20206;-76
2022/07/26 15:18:02;;;;;;;0.28;0.20;;;;;;;;;;21155588;28;20274;-76
2022/07/26 15:28:04;;;;;;;0.45;0.20;;;;;;;;;;21163228;27;20259;-76
2022/07/26 15:38:06;;;;;;;0.70;0.30;;;;;;;;;;21151139;27;20228;-76
2022/07/26 15:48:08;;;;;;;0.50;0.30;;;;;;;;;;21127047;28;20243;-78
2022/07/26 15:58:11;;;;;;;0.65;0.35;;;;;;;;;;21130890;28;20601;-76
2022/07/26 16:08:13;;;;;;;2.63;0.43;;;;;;;;;;21106384;28;20219;-77
2022/07/26 16:18:15;;;;;;;0.20;0.20;;;;;;;;;;21080752;28;20254;-74
2022/07/26 16:28:17;;;;;;;0.75;0.52;;;;;;;;;;21145695;28;20223;-74
2022/07/26 16:38:18;;;;;;;0.68;0.40;;;;;;;;;;21143423;28;20635;-76
2022/07/26 16:48:20;;;;;;;0.57;0.30;;;;;;;;;;21130353;28;20256;-77
2022/07/26 16:58:22;;;;;;;1.70;0.25;;;;;;;;;;21131127;27;20264;-76
2022/07/26 17:08:24;;;;;;;0.25;0.20;;;;;;;;;;21177646;27;20244;-77
2022/07/26 17:18:26;;;;;;;1.75;0.35;;;;;;;;;;21111584;28;20300;-75
2022/07/26 17:28:27;;;;;;;0.90;0.20;;;;;;;;;;21053999;28;20208;-76
2022/07/26 17:38:29;;;;;;;0.70;0.30;;;;;;;;;;21053962;28;20288;-77
2022/07/26 17:48:31;;;;;;;2.28;0.40;;;;;;;;;;21140044;28;20332;-73
2022/07/26 17:58:32;;;;;;;0.32;0.25;;;;;;;;;;21151661;28;20222;-72
2022/07/26 18:08:34;;;;;;;0.32;0.30;;;;;;;;;;21131126;28;20219;-75
2022/07/26 18:18:36;;;;;;;0.60;0.40;;;;;;;;;;21143478;27;20230;-72
2022/07/26 18:28:38;;;;;;;0.65;0.30;;;;;;;;;;21159167;28;20201;-73
2022/07/26 18:38:41;;;;;;;0.40;0.22;;;;;;;;;;21149217;28;20272;-72
2022/07/26 18:48:43;;;;;;;1.50;0.50;;;;;;;;;;21157227;28;20229;-72
2022/07/26 18:58:45;;;;;;;0.55;0.20;;;;;;;;;;21152871;28;20240;-72
2022/07/26 19:08:48;;;;;;;1.02;0.40;;;;;;;;;;21132845;28;20210;-73
2022/07/26 19:18:50;;;;;;;0.50;0.30;;;;;;;;;;21146937;28;20255;-73
2022/07/26 19:28:51;;;;;;;0.25;0.20;;;;;;;;;;21147669;28;20205;-73
2022/07/26 19:38:56;;;;;;;2.00;0.30;;;;;;;;;;21132519;28;20306;-75
2022/07/26 19:48:57;;;;;;;1.00;0.30;;;;;;;;;;21144765;28;20229;-74
2022/07/26 19:58:59;;;;;;;1.02;0.35;;;;;;;;;;21146911;28;20221;-73
2022/07/26 20:09:01;;;;;;;1.88;0.60;;;;;;;;;;21156983;27;20218;-74
2022/07/26 20:19:04;;;;;;;2.17;0.60;;;;;;;;;;21119047;28;20243;-73
2022/07/26 20:29:06;;;;;;;1.23;0.40;;;;;;;;;;21141044;28;20206;-74
2022/07/26 20:39:08;;;;;;;2.17;0.50;;;;;;;;;;21120973;28;20291;-73
2022/07/26 20:49:10;;;;;;;1.65;0.52;;;;;;;;;;21138384;28;20242;-74
2022/07/26 20:59:12;;;;;;;2.45;0.70;;;;;;;;;;21146985;28;20218;-74
2022/07/26 21:09:14;;;;;;;1.55;0.50;;;;;;;;;;21145798;28;20207;-73
2022/07/26 21:19:15;;;;;;;0.82;0.50;;;;;;;;;;21125961;28;20238;-74
2022/07/26 21:29:17;;;;;;;1.10;0.68;;;;;;;;;;21151814;28;20233;-73
2022/07/26 21:39:19;;;;;;;0.70;0.50;;;;;;;;;;21163795;28;20260;-73
2022/07/26 21:49:43;;;;;;;0.70;0.40;;;;;;;;;;21125900;28;20288;-74
2022/07/26 21:59:45;;;;;;;0.90;0.50;;;;;;;;;;21163750;28;20761;-73
2022/07/26 22:09:47;;;;;;;2.15;0.82;;;;;;;;;;21163153;28;20223;-73
2022/07/26 22:19:49;;;;;;;0.80;0.50;;;;;;;;;;21147340;28;20271;-73
2022/07/26 22:29:51;;;;;;;1.05;0.40;;;;;;;;;;21165399;28;20220;-73
2022/07/26 22:39:52;;;;;;;0.57;0.40;;;;;;;;;;21142004;28;20214;-73
2022/07/26 22:49:54;;;;;;;0.30;0.30;;;;;;;;;;21159870;28;20230;-73
2022/07/26 22:59:56;;;;;;;0.28;0.28;;;24.20;91.60;;;;;;21124585;28;20290;-73
2022/07/26 23:09:58;;;;;;;1.13;0.45;;;;;;;;;;21140785;28;20562;-72
2022/07/26 23:20:00;;;;;;;0.55;0.32;;;;;;;;;;21150150;27;20227;-73
2022/07/26 23:30:02;;;;;;;0.30;0.30;;;;;;;;;;21138228;28;20273;-72
2022/07/26 23:40:03;;;;;;;0.52;0.28;;;;;;;;;;21137217;28;20505;-73
2022/07/26 23:50:06;;;;;;;0.63;0.47;;;;;;;;;;21135998;28;20571;-71
